Terminal Aerodrome Forecast
Issued by NWS Cleveland, OH

Home | Current Version | Previous Version | Text Only | Print | Product List | Glossary On
Versions: 1 2 3 4 5 6 7 8 9 10 11 12 13 14 15 16 17 18
000
FTUS41 KCLE 242300
TAFMFD
TAF
KMFD 242324Z 2500/2524 10010KT P6SM BKN120
     FM250600 12010G18KT P6SM OVC050
     FM251200 13012G20KT 6SM -RA OVC035
     FM251400 14015G25KT 3SM -RA OVC025
     FM251600 19015G25KT 3SM -RA OVC015
     FM252000 23015G30KT P6SM BKN025=

USA.gov is the U.S. government's official web portal to all federal, state and local government web resources and services.